createdAt,value
2022-07-26T00:03:45.731Z,46.58
2022-07-26T00:08:48.006Z,46.16
2022-07-26T00:13:49.534Z,46.54
2022-07-26T00:18:50.870Z,46.71
2022-07-26T00:23:52.593Z,46.66
2022-07-26T00:28:53.994Z,46.74
2022-07-26T00:33:55.304Z,46.32
2022-07-26T00:38:56.641Z,46.32
2022-07-26T00:43:59.748Z,46.21
2022-07-26T00:49:01.120Z,46.25
2022-07-26T00:54:04.825Z,46.91
2022-07-26T00:59:06.664Z,46.40
2022-07-26T01:04:08.637Z,46.33
2022-07-26T01:09:11.750Z,46.79
2022-07-26T01:14:13.320Z,46.76
2022-07-26T01:19:14.925Z,46.35
2022-07-26T01:24:16.546Z,46.64
2022-07-26T01:29:18.080Z,46.20
2022-07-26T01:34:19.860Z,46.71
2022-07-26T01:39:21.252Z,46.13
2022-07-26T01:44:23.718Z,46.30
2022-07-26T01:49:25.167Z,46.55
2022-07-26T01:54:26.630Z,46.61
2022-07-26T01:59:27.978Z,46.67
2022-07-26T02:04:47.874Z,46.31
2022-07-26T02:09:49.203Z,46.07
2022-07-26T02:14:50.783Z,46.15
2022-07-26T02:19:52.334Z,45.70
2022-07-26T02:24:53.731Z,46.47
2022-07-26T02:29:55.084Z,46.46
2022-07-26T02:34:56.362Z,46.80
2022-07-26T02:39:57.947Z,46.33
2022-07-26T02:44:59.504Z,46.66
2022-07-26T02:50:00.790Z,46.64
2022-07-26T02:55:02.096Z,46.19
2022-07-26T03:00:04.638Z,46.35
2022-07-26T03:05:06.882Z,46.56
2022-07-26T03:10:08.837Z,46.74
2022-07-26T03:15:11.279Z,47.06
2022-07-26T03:20:12.809Z,47.07
2022-07-26T03:25:14.410Z,46.29
2022-07-26T03:30:15.828Z,46.78
2022-07-26T03:35:17.570Z,46.49
2022-07-26T03:40:20.153Z,46.73
2022-07-26T03:45:21.598Z,46.36
2022-07-26T03:50:23.291Z,46.89
2022-07-26T03:55:47.879Z,46.54
2022-07-26T04:00:49.351Z,46.74
2022-07-26T04:05:50.704Z,47.59
2022-07-26T04:10:54.439Z,46.91
2022-07-26T04:15:55.796Z,47.69
2022-07-26T04:20:57.434Z,47.77
2022-07-26T04:25:58.820Z,47.62
2022-07-26T04:31:00.843Z,47.98
2022-07-26T04:36:02.338Z,48.65
2022-07-26T04:41:03.902Z,47.88
2022-07-26T04:46:20.490Z,48.09
2022-07-26T04:51:21.843Z,48.66
2022-07-26T04:56:23.205Z,49.33
2022-07-26T05:01:24.542Z,48.91
2022-07-26T05:06:25.943Z,48.55
2022-07-26T05:11:27.326Z,48.76
2022-07-26T05:16:28.907Z,48.31
2022-07-26T05:21:30.650Z,49.01
2022-07-26T05:26:32.193Z,49.33
2022-07-26T05:31:33.520Z,47.97
2022-07-26T05:36:35.233Z,49.45
2022-07-26T05:46:38.335Z,48.70
2022-07-26T05:51:39.742Z,48.33
2022-07-26T05:56:41.050Z,50.11
2022-07-26T06:01:42.397Z,49.10
2022-07-26T06:06:43.776Z,50.43
2022-07-26T06:11:45.271Z,49.90
2022-07-26T06:16:47.277Z,49.73
2022-07-26T06:21:48.804Z,49.09
2022-07-26T06:26:56.748Z,47.92
2022-07-26T06:31:58.434Z,48.30
2022-07-26T06:36:59.969Z,48.58
2022-07-26T06:42:01.417Z,49.00
2022-07-26T06:47:02.942Z,48.96
2022-07-26T06:52:04.681Z,47.95
2022-07-26T06:57:06.171Z,47.28
2022-07-26T07:02:07.561Z,46.91
2022-07-26T07:07:09.163Z,47.70
2022-07-26T07:12:10.911Z,46.88
2022-07-26T07:17:16.024Z,46.65
2022-07-26T07:22:21.339Z,45.92
2022-07-26T07:27:22.753Z,45.23
2022-07-26T07:32:24.678Z,46.02
2022-07-26T07:37:26.345Z,45.75
2022-07-26T07:42:27.713Z,45.38
2022-07-26T07:47:29.342Z,45.61
2022-07-26T07:52:30.737Z,45.33
2022-07-26T07:57:32.715Z,44.16
2022-07-26T08:02:34.092Z,45.29
2022-07-26T08:07:36.399Z,43.97
2022-07-26T08:12:37.826Z,42.70
2022-07-26T08:17:41.798Z,43.70
2022-07-26T08:22:43.611Z,44.38
2022-07-26T08:27:55.038Z,43.89
2022-07-26T08:33:04.249Z,41.69
2022-07-26T08:38:05.658Z,42.07
2022-07-26T08:43:08.746Z,42.89
2022-07-26T08:48:18.675Z,42.26
2022-07-26T08:53:20.802Z,40.94
2022-07-26T08:58:22.295Z,40.77
2022-07-26T09:03:26.147Z,40.79
2022-07-26T09:08:29.666Z,40.79
2022-07-26T09:13:53.548Z,40.87
2022-07-26T09:18:56.293Z,38.50
2022-07-26T09:23:58.593Z,38.46
2022-07-26T09:29:09.634Z,39.88
2022-07-26T09:34:11.496Z,39.99
2022-07-26T09:39:13.158Z,39.41
2022-07-26T09:44:24.071Z,39.08
2022-07-26T09:49:30.965Z,38.73
2022-07-26T09:54:45.847Z,38.70
2022-07-26T09:59:48.019Z,38.50
2022-07-26T10:04:49.444Z,37.91
2022-07-26T10:10:01.512Z,37.84
2022-07-26T10:15:03.134Z,38.15
2022-07-26T10:20:09.324Z,37.02
2022-07-26T10:25:19.972Z,38.19
2022-07-26T10:30:27.662Z,39.62
2022-07-26T10:35:44.703Z,40.50
2022-07-26T10:40:56.892Z,39.57
2022-07-26T10:46:16.877Z,36.03
2022-07-26T10:51:31.551Z,35.24
2022-07-26T10:56:33.929Z,34.06
2022-07-26T11:01:37.748Z,32.38
2022-07-26T11:06:40.230Z,31.61
2022-07-26T11:11:47.166Z,33.15
2022-07-26T11:16:50.339Z,34.44
2022-07-26T11:21:59.844Z,31.92
2022-07-26T11:27:04.417Z,31.21
2022-07-26T11:32:17.450Z,30.71
2022-07-26T11:37:19.602Z,30.52
2022-07-26T11:42:22.134Z,30.88
2022-07-26T11:47:25.517Z,31.43
2022-07-26T11:52:31.618Z,31.89
2022-07-26T11:57:33.336Z,33.81
2022-07-26T12:02:34.917Z,35.43
2022-07-26T12:07:36.518Z,36.29
2022-07-26T12:12:39.393Z,34.54
2022-07-26T12:17:58.136Z,35.02
2022-07-26T12:23:04.955Z,33.81
2022-07-26T12:28:07.577Z,32.58
2022-07-26T12:33:08.961Z,31.45
2022-07-26T12:38:10.378Z,30.78
2022-07-26T12:43:12.236Z,31.46
2022-07-26T12:48:14.051Z,31.15
2022-07-26T12:53:15.431Z,30.53
2022-07-26T12:58:16.806Z,30.66
2022-07-26T13:03:18.174Z,30.49
2022-07-26T13:08:19.644Z,31.12
2022-07-26T13:13:20.997Z,30.90
2022-07-26T13:18:22.619Z,29.71
2022-07-26T13:23:26.038Z,30.13
2022-07-26T13:28:28.362Z,30.78
2022-07-26T13:33:29.815Z,31.57
2022-07-26T13:38:33.548Z,31.28
2022-07-26T13:43:35.406Z,30.63
2022-07-26T13:48:36.786Z,30.86
2022-07-26T13:53:55.045Z,30.13
2022-07-26T13:58:57.078Z,31.00
2022-07-26T14:03:58.624Z,31.07
2022-07-26T14:09:00.468Z,31.23
2022-07-26T14:14:02.105Z,31.05
2022-07-26T14:19:03.899Z,30.55
2022-07-26T14:24:05.647Z,29.89
2022-07-26T14:29:07.255Z,30.65
2022-07-26T14:34:09.083Z,30.81
2022-07-26T14:39:10.668Z,29.89
2022-07-26T14:44:12.369Z,30.81
2022-07-26T14:49:14.309Z,29.48
2022-07-26T14:54:16.312Z,30.55
2022-07-26T14:59:17.811Z,31.46
2022-07-26T15:04:19.279Z,31.12
2022-07-26T15:09:20.724Z,32.35
2022-07-26T15:14:22.089Z,31.96
2022-07-26T15:19:25.692Z,32.00
2022-07-26T15:24:28.624Z,32.31
2022-07-26T15:29:30.085Z,32.44
2022-07-26T15:34:32.479Z,32.71
2022-07-26T15:39:33.960Z,32.95
2022-07-26T15:44:37.993Z,32.76
2022-07-26T15:49:40.240Z,32.57
2022-07-26T15:54:42.422Z,33.42
2022-07-26T15:59:44.004Z,32.84
2022-07-26T16:04:45.361Z,33.14
2022-07-26T16:09:46.694Z,32.88
2022-07-26T16:14:48.635Z,32.92
2022-07-26T16:19:50.394Z,32.78
2022-07-26T16:24:51.795Z,32.81
2022-07-26T16:29:53.207Z,33.11
2022-07-26T16:34:54.565Z,32.98
2022-07-26T16:39:56.000Z,33.01
2022-07-26T16:44:57.386Z,32.89
2022-07-26T16:49:58.789Z,32.57
2022-07-26T16:55:00.423Z,32.13
2022-07-26T17:00:01.914Z,32.41
2022-07-26T17:05:04.686Z,32.72
2022-07-26T17:10:08.403Z,33.96
2022-07-26T17:15:11.004Z,35.00
2022-07-26T17:20:12.433Z,36.04
2022-07-26T17:25:13.821Z,36.50
2022-07-26T17:30:15.258Z,37.11
2022-07-26T17:35:16.627Z,37.36
2022-07-26T17:40:17.998Z,37.57
2022-07-26T17:45:19.835Z,37.85
2022-07-26T17:50:38.203Z,38.01
2022-07-26T17:55:40.048Z,38.19
2022-07-26T18:00:41.580Z,37.91
2022-07-26T18:05:43.363Z,38.54
2022-07-26T18:10:50.579Z,38.66
2022-07-26T18:15:52.655Z,39.19
2022-07-26T18:20:54.672Z,39.11
2022-07-26T18:25:57.939Z,38.71
2022-07-26T18:30:59.395Z,39.48
2022-07-26T18:36:01.511Z,39.44
2022-07-26T18:41:03.099Z,39.07
2022-07-26T18:46:06.312Z,39.94
2022-07-26T18:51:07.904Z,39.88
2022-07-26T18:56:09.267Z,39.18
2022-07-26T19:01:10.736Z,39.21
2022-07-26T19:06:13.054Z,39.54
2022-07-26T19:11:14.435Z,39.73
2022-07-26T19:16:15.923Z,39.92
2022-07-26T19:21:17.454Z,39.78
2022-07-26T19:26:18.967Z,39.55
2022-07-26T19:31:21.364Z,40.10
2022-07-26T19:36:26.055Z,39.95
2022-07-26T19:41:27.852Z,40.10
2022-07-26T19:46:29.474Z,40.08
2022-07-26T19:51:31.057Z,40.08
2022-07-26T19:56:32.461Z,40.86
2022-07-26T20:01:33.999Z,40.51
2022-07-26T20:06:35.469Z,41.19
2022-07-26T20:11:36.891Z,40.92
2022-07-26T20:16:38.310Z,41.45
2022-07-26T20:21:39.833Z,41.63
2022-07-26T20:26:41.229Z,41.77
2022-07-26T20:31:42.988Z,42.56
2022-07-26T20:36:44.422Z,42.63
2022-07-26T20:41:45.904Z,43.01
2022-07-26T20:46:47.409Z,43.37
2022-07-26T20:51:48.772Z,43.40
2022-07-26T20:56:50.184Z,45.25
2022-07-26T21:01:51.654Z,45.23
2022-07-26T21:06:53.079Z,44.82
2022-07-26T21:11:54.844Z,45.04
2022-07-26T21:16:56.274Z,45.15
2022-07-26T21:21:57.865Z,45.20
2022-07-26T21:26:59.201Z,45.01
2022-07-26T21:32:00.690Z,45.39
2022-07-26T21:37:04.334Z,45.41
2022-07-26T21:42:05.964Z,46.04
2022-07-26T21:47:07.404Z,46.92
2022-07-26T21:52:08.815Z,46.71
2022-07-26T21:57:10.253Z,46.65
2022-07-26T22:02:11.801Z,47.14
2022-07-26T22:07:13.313Z,46.46
2022-07-26T22:12:14.677Z,46.68
2022-07-26T22:17:16.016Z,47.35
2022-07-26T22:22:17.414Z,47.65
2022-07-26T22:27:18.796Z,48.51
2022-07-26T22:32:20.201Z,48.56
2022-07-26T22:37:21.527Z,49.48
2022-07-26T22:42:22.888Z,49.30
2022-07-26T22:47:24.385Z,49.15
2022-07-26T22:52:25.733Z,49.52
2022-07-26T22:57:27.245Z,49.67
2022-07-26T23:02:32.039Z,49.62
2022-07-26T23:07:33.761Z,49.58
2022-07-26T23:12:35.517Z,49.56
2022-07-26T23:17:37.613Z,49.70
2022-07-26T23:22:41.716Z,49.93
2022-07-26T23:27:43.142Z,49.66
2022-07-26T23:32:44.528Z,50.34
2022-07-26T23:37:45.900Z,49.92
2022-07-26T23:42:48.204Z,50.75
2022-07-26T23:47:49.650Z,50.94
2022-07-26T23:52:51.100Z,51.31
2022-07-26T23:57:52.461Z,51.33
